Marlin V — 3EYO3 — position and weather

sailwx.info

Track history (hours):
 
Tides and Currents Weather Stations Pressure Air Temp Water Temp Dewpoint Dewpoint Depression Visibility Wind Speed Wind Dir Waves Ship Positions

Marlin V

Last reported at 2018-Jan-19 11:55 UTC. Time now 2018-Jan-23 13:51 UTC.
Position N 01°15' E 104°08'.

Length 199 m; draft 6.8 m.

Type: Cargo ship. MMSI: 357658000.

Date/timePositionNaut miles runAvg speedWind from/ knotsBaromVisibWave heightAir tempDewpointWater temp
2018-Jan-19 11:55N 01°15' E 104°08'614.4
2018-Jan-19 11:28N 01°15' E 104°01'510.6
2018-Jan-19 10:59N 01°16' E 103°56'2 3.1
2018-Jan-19 10:27N 01°17' E 103°56'0 0.0
2018-Jan-19 09:57N 01°17' E 103°56'0 0.0
2018-Jan-19 08:12N 01°17' E 103°56'0 0.0
2018-Jan-19 08:00N 01°17' E 103°56'0 0.1
2018-Jan-19 04:54N 01°17' E 103°56'0 0.2
2018-Jan-19 04:30N 01°17' E 103°56'0 0.1
2018-Jan-19 03:57N 01°17' E 103°56'0 0.0
2018-Jan-19 03:27N 01°17' E 103°56'0 0.1
2018-Jan-19 03:00N 01°17' E 103°56'0 0.0
2018-Jan-19 02:15N 01°17' E 103°56'0 0.0
2018-Jan-19 01:03N 01°17' E 103°56'0 0.1
2018-Jan-19 00:42N 01°17' E 103°56'0 1.5
2018-Jan-19 00:31N 01°17' E 103°56'2 3.6
2018-Jan-18 23:59N 01°15' E 103°57'1 2.9
2018-Jan-18 23:31N 01°14' E 103°57'4 8.9
2018-Jan-18 23:01N 01°12' E 103°53'5 9.6
2018-Jan-18 22:31N 01°10' E 103°49'5 9.8
2018-Jan-18 22:01N 01°07' E 103°45'510.0
2018-Jan-18 21:30N 01°04' E 103°41'611.4
2018-Jan-18 21:00N 01°05' E 103°35'713.6
2018-Jan-18 20:31N 01°08' E 103°30'713.5
2018-Jan-18 19:58N 01°12' E 103°23'613.7
2018-Jan-18 19:30N 01°17' E 103°19'3614.1
2018-Jan-18 16:55N 01°37' E 102°49'614.6
2018-Jan-18 16:28N 01°41' E 102°43'1014.7
2018-Jan-18 15:48N 01°44' E 102°34'  
Track history (hours):
 
Tides and Currents Weather Stations Pressure Air Temp Water Temp Dewpoint Dewpoint Depression Visibility Wind Speed Wind Dir Waves Ship Positions

Marlin V

Last reported at 2018-Jan-19 11:55 UTC. Time now 2018-Jan-23 13:51 UTC.
Position N 01°15' E 104°08'.

Length 199 m; draft 6.8 m.

Type: Cargo ship. MMSI: 357658000.

Date/timePositionNaut miles runAvg speedWind from/ knotsBaromVisibWave heightAir tempDewpointWater temp
2018-Jan-19 11:55N 01°15' E 104°08'614.4
2018-Jan-19 11:28N 01°15' E 104°01'510.6
2018-Jan-19 10:59N 01°16' E 103°56'2 3.1
2018-Jan-19 10:27N 01°17' E 103°56'0 0.0
2018-Jan-19 09:57N 01°17' E 103°56'0 0.0
2018-Jan-19 08:12N 01°17' E 103°56'0 0.0
2018-Jan-19 08:00N 01°17' E 103°56'0 0.1
2018-Jan-19 04:54N 01°17' E 103°56'0 0.2
2018-Jan-19 04:30N 01°17' E 103°56'0 0.1
2018-Jan-19 03:57N 01°17' E 103°56'0 0.0
2018-Jan-19 03:27N 01°17' E 103°56'0 0.1
2018-Jan-19 03:00N 01°17' E 103°56'0 0.0
2018-Jan-19 02:15N 01°17' E 103°56'0 0.0
2018-Jan-19 01:03N 01°17' E 103°56'0 0.1
2018-Jan-19 00:42N 01°17' E 103°56'0 1.5
2018-Jan-19 00:31N 01°17' E 103°56'2 3.6
2018-Jan-18 23:59N 01°15' E 103°57'1 2.9
2018-Jan-18 23:31N 01°14' E 103°57'4 8.9
2018-Jan-18 23:01N 01°12' E 103°53'5 9.6
2018-Jan-18 22:31N 01°10' E 103°49'5 9.8
2018-Jan-18 22:01N 01°07' E 103°45'510.0
2018-Jan-18 21:30N 01°04' E 103°41'611.4
2018-Jan-18 21:00N 01°05' E 103°35'713.6
2018-Jan-18 20:31N 01°08' E 103°30'713.5
2018-Jan-18 19:58N 01°12' E 103°23'613.7
2018-Jan-18 19:30N 01°17' E 103°19'3614.1
2018-Jan-18 16:55N 01°37' E 102°49'614.6
2018-Jan-18 16:28N 01°41' E 102°43'1014.7
2018-Jan-18 15:48N 01°44' E 102°34'  

Dump ship's entire track history